createdAt,value
2023-02-06T00:00:43.204Z,11.70
2023-02-06T00:03:12.616Z,13.43
2023-02-06T00:05:40.499Z,12.03
2023-02-06T00:08:10.844Z,15.83
2023-02-06T00:10:38.980Z,14.00
2023-02-06T00:13:10.001Z,11.40
2023-02-06T00:15:39.721Z,13.40
2023-02-06T00:18:10.125Z,16.57
2023-02-06T00:20:38.450Z,13.00
2023-02-06T00:23:07.775Z,11.63
2023-02-06T00:25:36.878Z,13.90
2023-02-06T00:28:05.623Z,12.77
2023-02-06T00:30:33.800Z,11.57
2023-02-06T00:33:14.209Z,13.23
2023-02-06T00:35:42.186Z,14.40
2023-02-06T00:38:11.913Z,15.47
2023-02-06T00:40:42.629Z,12.17
2023-02-06T00:43:10.403Z,17.30
2023-02-06T00:45:40.686Z,13.70
2023-02-06T00:48:10.379Z,16.20
2023-02-06T00:50:38.454Z,13.40
2023-02-06T00:53:08.793Z,14.77
2023-02-06T00:55:36.880Z,13.77
2023-02-06T00:58:11.394Z,14.70
2023-02-06T01:00:39.251Z,14.67
2023-02-06T01:03:06.998Z,13.57
2023-02-06T01:05:36.590Z,15.40
2023-02-06T01:08:04.948Z,14.60
2023-02-06T01:10:33.030Z,15.27
2023-02-06T01:13:06.257Z,14.90
2023-02-06T01:15:37.761Z,14.60
2023-02-06T01:18:08.717Z,16.00
2023-02-06T01:20:38.175Z,14.30
2023-02-06T01:23:08.266Z,15.97
2023-02-06T01:25:38.533Z,16.57
2023-02-06T01:28:06.454Z,16.23
2023-02-06T01:30:38.502Z,17.57
2023-02-06T01:33:08.790Z,14.20
2023-02-06T01:35:40.744Z,15.50
2023-02-06T01:38:14.348Z,14.10
2023-02-06T01:40:44.713Z,15.13
2023-02-06T01:43:22.235Z,14.27
2023-02-06T01:45:50.005Z,14.57
2023-02-06T01:48:21.239Z,15.47
2023-02-06T01:50:53.719Z,16.50
2023-02-06T01:53:22.240Z,17.90
2023-02-06T01:55:52.724Z,20.03
2023-02-06T01:58:25.899Z,18.37
2023-02-06T02:00:55.058Z,16.50
2023-02-06T02:03:23.317Z,16.10
2023-02-06T02:05:53.281Z,19.47
2023-02-06T02:08:23.512Z,15.53
2023-02-06T02:10:51.638Z,19.37
2023-02-06T02:13:21.168Z,19.53
2023-02-06T02:16:02.530Z,18.90
2023-02-06T02:18:49.233Z,17.23
2023-02-06T02:21:41.516Z,15.57
2023-02-06T02:24:18.211Z,15.53
2023-02-06T02:27:08.680Z,17.33
2023-02-06T02:30:29.137Z,16.40
2023-02-06T02:33:38.480Z,14.40
2023-02-06T02:36:15.453Z,16.07
2023-02-06T02:38:54.275Z,15.27
2023-02-06T02:41:27.247Z,15.27
2023-02-06T02:43:59.781Z,15.77
2023-02-06T02:46:31.589Z,16.50
2023-02-06T02:49:04.459Z,17.33
2023-02-06T02:51:35.075Z,19.13
2023-02-06T02:54:03.782Z,16.30
2023-02-06T02:56:38.742Z,17.43
2023-02-06T02:59:13.083Z,17.60
2023-02-06T03:01:43.690Z,16.33
2023-02-06T03:04:14.278Z,17.10
2023-02-06T03:07:09.215Z,16.00
2023-02-06T03:09:49.602Z,17.77
2023-02-06T03:12:22.385Z,15.60
2023-02-06T03:14:59.317Z,15.77
2023-02-06T03:17:34.745Z,16.80
2023-02-06T03:20:07.817Z,15.23
2023-02-06T03:22:38.172Z,17.07
2023-02-06T03:25:10.042Z,15.47
2023-02-06T03:27:42.562Z,17.27
2023-02-06T03:30:14.144Z,17.43
2023-02-06T03:32:45.449Z,18.30
2023-02-06T03:35:19.541Z,17.40
2023-02-06T03:37:53.595Z,15.17
2023-02-06T03:40:21.816Z,16.47
2023-02-06T03:42:53.616Z,17.30
2023-02-06T03:45:24.257Z,15.37
2023-02-06T03:47:57.541Z,19.43
2023-02-06T03:50:30.362Z,17.03
2023-02-06T03:53:04.493Z,19.03
2023-02-06T03:55:40.499Z,18.57
2023-02-06T03:58:24.634Z,17.40
2023-02-06T04:00:53.153Z,17.00
2023-02-06T04:03:23.179Z,21.33
2023-02-06T04:05:51.060Z,18.63
2023-02-06T04:08:24.478Z,23.00
2023-02-06T04:10:52.394Z,18.20
2023-02-06T04:13:24.946Z,21.70
2023-02-06T04:15:53.102Z,16.30
2023-02-06T04:18:22.479Z,18.37
2023-02-06T04:20:53.361Z,20.37
2023-02-06T04:23:26.391Z,17.87
2023-02-06T04:25:57.336Z,16.03
2023-02-06T04:28:26.397Z,16.10
2023-02-06T04:30:55.779Z,16.30
2023-02-06T04:33:30.261Z,17.80
2023-02-06T04:36:00.243Z,17.63
2023-02-06T04:38:32.564Z,19.57
2023-02-06T04:41:03.886Z,16.80
2023-02-06T04:43:32.060Z,18.57
2023-02-06T04:46:03.143Z,17.63
2023-02-06T04:48:34.327Z,16.97
2023-02-06T04:51:04.937Z,18.30
2023-02-06T04:53:34.847Z,16.97
2023-02-06T04:56:03.611Z,17.27
2023-02-06T04:58:32.792Z,18.07
2023-02-06T05:01:00.696Z,17.87
2023-02-06T05:03:29.705Z,17.67
2023-02-06T05:06:03.614Z,16.80
2023-02-06T05:08:32.543Z,18.63
2023-02-06T05:11:02.345Z,16.73
2023-02-06T05:13:30.573Z,17.93
2023-02-06T05:16:01.527Z,16.60
2023-02-06T05:18:33.269Z,16.17
2023-02-06T05:21:01.143Z,18.57
2023-02-06T05:23:29.015Z,15.90
2023-02-06T05:25:57.250Z,18.47
2023-02-06T05:28:33.667Z,16.20
2023-02-06T05:31:02.886Z,17.07
2023-02-06T05:33:33.780Z,17.33
2023-02-06T05:36:07.858Z,15.70
2023-02-06T05:38:38.365Z,15.97
2023-02-06T05:41:18.920Z,18.30
2023-02-06T05:43:49.315Z,16.60
2023-02-06T05:46:19.518Z,17.07
2023-02-06T05:48:47.400Z,16.30
2023-02-06T05:51:15.280Z,15.20
2023-02-06T05:53:43.726Z,17.90
2023-02-06T05:56:15.642Z,18.50
2023-02-06T05:58:44.333Z,18.47
2023-02-06T06:01:13.954Z,17.43
2023-02-06T06:03:43.818Z,15.97
2023-02-06T06:06:14.797Z,17.10
2023-02-06T06:08:45.835Z,17.50
2023-02-06T06:11:16.358Z,20.27
2023-02-06T06:13:47.679Z,18.43
2023-02-06T06:16:20.887Z,16.90
2023-02-06T06:18:56.102Z,16.13
2023-02-06T06:21:24.193Z,18.30
2023-02-06T06:24:03.074Z,18.27
2023-02-06T06:26:32.071Z,16.97
2023-02-06T06:29:06.002Z,17.57
2023-02-06T06:31:47.478Z,17.70
2023-02-06T06:34:19.498Z,16.70
2023-02-06T06:36:54.331Z,15.53
2023-02-06T06:39:25.648Z,17.90
2023-02-06T06:41:56.468Z,20.73
2023-02-06T06:44:24.560Z,16.07
2023-02-06T06:46:56.468Z,19.03
2023-02-06T06:49:28.976Z,17.37
2023-02-06T06:51:56.892Z,18.83
2023-02-06T06:54:27.748Z,14.80
2023-02-06T06:56:56.672Z,17.60
2023-02-06T06:59:25.723Z,16.03
2023-02-06T07:01:57.435Z,17.23
2023-02-06T07:04:34.583Z,17.03
2023-02-06T07:07:05.305Z,15.47
2023-02-06T07:09:33.446Z,17.00
2023-02-06T07:12:02.032Z,16.47
2023-02-06T07:14:29.823Z,15.33
2023-02-06T07:17:05.101Z,15.17
2023-02-06T07:19:32.994Z,15.60
2023-02-06T07:22:00.958Z,17.23
2023-02-06T07:24:34.875Z,14.13
2023-02-06T07:27:03.034Z,16.53
2023-02-06T07:29:34.035Z,16.13
2023-02-06T07:32:03.676Z,16.67
2023-02-06T07:34:33.021Z,14.50
2023-02-06T07:37:01.364Z,16.30
2023-02-06T07:39:31.288Z,15.47
2023-02-06T07:42:01.293Z,16.90
2023-02-06T07:44:29.361Z,13.73
2023-02-06T07:47:01.166Z,17.47
2023-02-06T07:49:30.508Z,13.47
2023-02-06T07:52:01.315Z,17.60
2023-02-06T07:54:31.722Z,16.90
2023-02-06T07:57:01.120Z,14.47
2023-02-06T07:59:29.476Z,16.10
2023-02-06T08:02:01.148Z,15.40
2023-02-06T08:04:35.360Z,16.27
2023-02-06T08:07:03.620Z,13.77
2023-02-06T08:09:33.463Z,14.83
2023-02-06T08:12:02.376Z,14.73
2023-02-06T08:14:32.934Z,14.40
2023-02-06T08:17:04.174Z,15.80
2023-02-06T08:19:36.508Z,15.20
2023-02-06T08:22:04.849Z,15.57
2023-02-06T08:24:38.059Z,13.43
2023-02-06T08:27:09.929Z,14.53
2023-02-06T08:29:42.574Z,13.03
2023-02-06T08:32:11.193Z,15.17
2023-02-06T08:34:41.676Z,14.20
2023-02-06T08:37:09.948Z,15.23
2023-02-06T08:39:40.465Z,12.13
2023-02-06T08:42:11.117Z,13.63
2023-02-06T08:44:39.259Z,13.00
2023-02-06T08:47:10.424Z,10.63
2023-02-06T08:49:42.099Z,14.13
2023-02-06T08:52:11.994Z,15.27
2023-02-06T08:54:43.037Z,13.73
2023-02-06T08:57:24.467Z,13.57
2023-02-06T08:59:53.028Z,12.60
2023-02-06T09:02:20.989Z,12.97
2023-02-06T09:04:50.272Z,12.70
2023-02-06T09:07:18.279Z,12.60
2023-02-06T09:09:48.986Z,10.57
2023-02-06T09:12:17.265Z,12.63
2023-02-06T09:14:46.472Z,10.43
2023-02-06T09:17:14.431Z,10.07
2023-02-06T09:19:50.526Z,11.80
2023-02-06T09:22:20.187Z,14.20
2023-02-06T09:24:52.485Z,14.60
2023-02-06T09:27:22.810Z,12.47
2023-02-06T09:29:51.022Z,12.30
2023-02-06T09:32:20.914Z,11.60
2023-02-06T09:34:51.817Z,10.30
2023-02-06T09:37:23.639Z,8.87
2023-02-06T09:39:54.636Z,10.17
2023-02-06T09:42:28.083Z,9.90
2023-02-06T09:45:02.952Z,9.30
2023-02-06T09:47:36.241Z,9.40
2023-02-06T09:50:20.972Z,9.70
2023-02-06T09:53:02.810Z,7.67
2023-02-06T09:58:25.495Z,7.53
2023-02-06T10:00:59.548Z,6.80
2023-02-06T10:03:45.287Z,7.10
2023-02-06T10:06:21.341Z,7.00
2023-02-06T10:09:00.427Z,6.40
2023-02-06T10:11:38.964Z,6.03
2023-02-06T10:14:12.968Z,5.73
2023-02-06T10:16:47.070Z,6.40
2023-02-06T10:19:17.177Z,6.10
2023-02-06T10:21:48.723Z,7.00
2023-02-06T10:24:30.028Z,6.33
2023-02-06T10:27:01.441Z,6.13
2023-02-06T10:29:31.133Z,6.47
2023-02-06T10:32:31.826Z,7.87
2023-02-06T10:35:28.775Z,6.23
2023-02-06T10:38:20.007Z,7.03
2023-02-06T10:40:53.879Z,6.40
2023-02-06T10:43:30.401Z,7.40
2023-02-06T10:46:05.200Z,5.73
2023-02-06T10:48:37.192Z,5.77
2023-02-06T10:51:18.819Z,6.70
2023-02-06T10:53:52.250Z,4.27
2023-02-06T10:56:24.787Z,4.27
2023-02-06T10:58:58.226Z,4.30
2023-02-06T11:01:33.500Z,4.00
2023-02-06T11:04:05.959Z,5.90
2023-02-06T11:06:37.494Z,4.80
2023-02-06T11:09:05.724Z,5.10
2023-02-06T11:11:39.194Z,4.30
2023-02-06T11:14:18.229Z,5.17
2023-02-06T11:16:48.228Z,5.63
2023-02-06T11:19:27.257Z,4.83
2023-02-06T11:22:12.548Z,4.30
2023-02-06T11:27:38.698Z,4.27
2023-02-06T11:30:10.225Z,4.30
2023-02-06T11:33:03.489Z,3.83
2023-02-06T11:35:41.560Z,5.63
2023-02-06T11:38:17.199Z,4.57
2023-02-06T11:40:45.571Z,4.90
2023-02-06T11:43:24.854Z,5.40
2023-02-06T11:46:09.922Z,4.80
2023-02-06T11:48:41.146Z,6.70
2023-02-06T11:51:16.990Z,5.03
2023-02-06T11:54:06.755Z,5.40
2023-02-06T11:56:37.430Z,5.17
2023-02-06T11:59:09.199Z,5.80
2023-02-06T12:01:48.249Z,6.00
2023-02-06T12:04:24.159Z,6.17
2023-02-06T12:06:57.992Z,6.80
2023-02-06T12:09:29.400Z,5.53
2023-02-06T12:12:04.259Z,6.57
2023-02-06T12:14:39.404Z,5.90
2023-02-06T12:17:20.223Z,5.50
2023-02-06T12:19:52.793Z,5.37
2023-02-06T12:22:28.122Z,5.17
2023-02-06T12:25:06.546Z,5.33
2023-02-06T12:27:39.813Z,4.33
2023-02-06T12:30:28.833Z,6.10
2023-02-06T12:33:02.066Z,5.47
2023-02-06T12:35:37.434Z,5.27
2023-02-06T12:38:10.869Z,4.30
2023-02-06T12:40:44.686Z,3.97
2023-02-06T12:43:19.764Z,4.60
2023-02-06T12:45:54.119Z,4.07
2023-02-06T12:48:31.456Z,4.17
2023-02-06T12:51:11.932Z,4.70
2023-02-06T12:53:42.784Z,4.57
2023-02-06T12:56:21.549Z,4.40
2023-02-06T12:58:54.548Z,4.13
2023-02-06T13:01:36.241Z,4.20
2023-02-06T13:04:05.499Z,3.13
2023-02-06T13:06:43.675Z,3.80
2023-02-06T13:09:22.619Z,4.80
2023-02-06T13:11:56.104Z,4.07
2023-02-06T13:14:31.167Z,4.17
2023-02-06T13:17:13.247Z,3.20
2023-02-06T13:20:05.089Z,3.30
2023-02-06T13:22:46.684Z,4.20
2023-02-06T13:25:56.252Z,4.30
2023-02-06T13:29:04.290Z,3.60
2023-02-06T13:31:34.578Z,3.73
2023-02-06T13:34:08.516Z,3.87
2023-02-06T13:36:58.300Z,3.47
2023-02-06T13:39:29.788Z,3.20
2023-02-06T13:42:05.164Z,3.70
2023-02-06T13:44:36.516Z,3.33
2023-02-06T13:47:29.745Z,4.30
2023-02-06T13:50:30.056Z,3.47
2023-02-06T13:53:36.005Z,3.00
2023-02-06T13:56:14.348Z,4.33
2023-02-06T13:58:47.696Z,3.63
2023-02-06T14:01:20.317Z,3.97
2023-02-06T14:03:52.498Z,3.83
2023-02-06T14:07:03.234Z,4.43
2023-02-06T14:09:45.480Z,3.53
2023-02-06T14:12:35.592Z,3.13
2023-02-06T14:15:17.029Z,3.53
2023-02-06T14:18:11.677Z,3.07
2023-02-06T14:20:50.355Z,3.60
2023-02-06T14:23:30.617Z,3.57
2023-02-06T14:26:17.184Z,3.43
2023-02-06T14:28:56.188Z,3.70
2023-02-06T14:31:36.415Z,4.30
2023-02-06T14:34:20.240Z,4.17
2023-02-06T14:37:11.007Z,3.83
2023-02-06T14:39:50.674Z,3.57
2023-02-06T14:42:22.564Z,4.90
2023-02-06T14:44:55.168Z,3.87
2023-02-06T14:47:43.390Z,3.27
2023-02-06T14:50:21.720Z,3.47
2023-02-06T14:52:56.331Z,4.50
2023-02-06T14:55:36.099Z,3.73
2023-02-06T14:58:07.737Z,3.97
2023-02-06T15:00:36.402Z,4.53
2023-02-06T15:03:08.134Z,4.10
2023-02-06T15:05:37.033Z,3.70
2023-02-06T15:08:07.262Z,4.30
2023-02-06T15:10:39.928Z,4.17
2023-02-06T15:13:07.940Z,3.30
2023-02-06T15:15:39.137Z,5.20
2023-02-06T15:18:08.992Z,3.70
2023-02-06T15:20:44.098Z,3.30
2023-02-06T15:23:18.367Z,4.07
2023-02-06T15:26:07.356Z,2.97
2023-02-06T15:28:39.801Z,3.60
2023-02-06T15:31:17.959Z,4.10
2023-02-06T15:33:50.944Z,4.00
2023-02-06T15:36:26.400Z,3.17
2023-02-06T15:38:54.341Z,3.70
2023-02-06T15:41:24.508Z,3.70
2023-02-06T15:43:56.770Z,4.73
2023-02-06T15:46:25.135Z,3.30
2023-02-06T15:48:55.536Z,3.23
2023-02-06T15:51:31.030Z,3.97
2023-02-06T15:54:16.923Z,3.10
2023-02-06T15:56:59.286Z,3.80
2023-02-06T15:59:28.403Z,3.20
2023-02-06T16:01:59.584Z,3.60
2023-02-06T16:04:31.240Z,3.47
2023-02-06T16:07:02.228Z,3.83
2023-02-06T16:09:36.335Z,3.53
2023-02-06T16:12:09.843Z,3.60
2023-02-06T16:14:40.203Z,3.37
2023-02-06T16:17:32.214Z,3.87
2023-02-06T16:20:07.343Z,3.30
2023-02-06T16:22:39.306Z,3.70
2023-02-06T16:25:16.501Z,3.50
2023-02-06T16:27:49.007Z,4.17
2023-02-06T16:30:28.490Z,3.60
2023-02-06T16:33:00.197Z,3.80
2023-02-06T16:35:28.435Z,3.43
2023-02-06T16:37:57.868Z,3.37
2023-02-06T16:40:30.025Z,3.80
2023-02-06T16:43:02.072Z,4.53
2023-02-06T16:45:29.918Z,4.17
2023-02-06T16:47:58.543Z,3.50
2023-02-06T16:50:28.128Z,4.40
2023-02-06T16:53:04.095Z,3.40
2023-02-06T16:55:32.245Z,3.67
2023-02-06T16:58:02.233Z,3.97
2023-02-06T17:00:32.382Z,4.30
2023-02-06T17:03:01.983Z,4.60
2023-02-06T17:05:31.654Z,3.73
2023-02-06T17:08:04.275Z,3.60
2023-02-06T17:10:37.813Z,3.83
2023-02-06T17:13:14.243Z,3.90
2023-02-06T17:15:47.139Z,3.63
2023-02-06T17:18:18.369Z,4.00
2023-02-06T17:20:51.801Z,3.90
2023-02-06T17:23:22.272Z,5.27
2023-02-06T17:25:52.463Z,5.80
2023-02-06T17:28:22.352Z,5.03
2023-02-06T17:31:00.732Z,5.90
2023-02-06T17:33:29.351Z,7.00
2023-02-06T17:35:58.125Z,4.73
2023-02-06T17:38:26.487Z,4.53
2023-02-06T17:40:56.857Z,4.00
2023-02-06T17:43:33.845Z,4.77
2023-02-06T17:46:03.397Z,5.30
2023-02-06T17:48:36.442Z,4.47
2023-02-06T17:51:05.894Z,4.03
2023-02-06T17:53:34.473Z,4.47
2023-02-06T17:56:14.032Z,4.50
2023-02-06T17:58:46.458Z,4.60
2023-02-06T18:01:15.601Z,5.10
2023-02-06T18:03:47.944Z,3.57
2023-02-06T18:06:16.367Z,3.17
2023-02-06T18:08:44.982Z,4.03
2023-02-06T18:11:19.246Z,4.03
2023-02-06T18:13:54.026Z,4.20
2023-02-06T18:16:26.424Z,4.40
2023-02-06T18:18:54.704Z,3.90
2023-02-06T18:21:24.590Z,4.80
2023-02-06T18:23:55.068Z,4.00
2023-02-06T18:26:24.380Z,3.43
2023-02-06T18:28:55.091Z,3.60
2023-02-06T18:31:27.079Z,4.17
2023-02-06T18:33:55.365Z,3.63
2023-02-06T18:36:24.965Z,4.07
2023-02-06T18:38:53.782Z,3.77
2023-02-06T18:41:42.769Z,4.10
2023-02-06T18:44:12.554Z,3.70
2023-02-06T18:46:41.531Z,5.80
2023-02-06T18:49:11.728Z,3.80
2023-02-06T18:51:48.856Z,5.03
2023-02-06T18:54:16.772Z,4.93
2023-02-06T18:56:45.547Z,4.53
2023-02-06T18:59:15.570Z,4.30
2023-02-06T19:01:48.865Z,3.97
2023-02-06T19:04:16.824Z,4.60
2023-02-06T19:06:45.916Z,4.30
2023-02-06T19:09:14.298Z,4.40
2023-02-06T19:11:47.391Z,4.07
2023-02-06T19:14:19.913Z,4.70
2023-02-06T19:16:48.986Z,3.83
2023-02-06T19:19:21.060Z,4.80
2023-02-06T19:21:49.075Z,4.10
2023-02-06T19:24:20.306Z,4.57
2023-02-06T19:26:48.315Z,4.57
2023-02-06T19:29:34.425Z,5.20
2023-02-06T19:32:03.777Z,3.90
2023-02-06T19:34:38.277Z,4.20
2023-02-06T19:37:07.128Z,5.23
2023-02-06T19:39:42.665Z,5.60
2023-02-06T19:42:18.114Z,4.47
2023-02-06T19:44:48.202Z,5.83
2023-02-06T19:47:20.191Z,4.70
2023-02-06T19:49:52.954Z,4.70
2023-02-06T19:52:21.453Z,4.43
2023-02-06T19:54:52.514Z,5.57
2023-02-06T19:57:20.457Z,5.40
2023-02-06T19:59:49.758Z,4.53
2023-02-06T20:02:20.578Z,5.60
2023-02-06T20:04:53.024Z,6.53
2023-02-06T20:07:22.266Z,5.50
2023-02-06T20:09:51.178Z,4.80
2023-02-06T20:12:19.289Z,5.97
2023-02-06T20:14:48.529Z,4.83
2023-02-06T20:17:19.918Z,4.93
2023-02-06T20:19:50.064Z,5.43
2023-02-06T20:22:24.004Z,4.53
2023-02-06T20:24:56.734Z,5.60
2023-02-06T20:27:24.773Z,5.93
2023-02-06T20:29:55.129Z,5.07
2023-02-06T20:32:26.093Z,5.63
2023-02-06T20:34:57.819Z,5.33
2023-02-06T20:37:26.524Z,5.40
2023-02-06T20:39:57.304Z,5.20
2023-02-06T20:42:28.888Z,4.40
2023-02-06T20:44:57.241Z,5.30
2023-02-06T20:47:41.506Z,5.43
2023-02-06T20:50:10.382Z,5.30
2023-02-06T20:52:38.377Z,3.90
2023-02-06T20:55:09.106Z,4.63
2023-02-06T20:57:37.349Z,4.07
2023-02-06T21:00:05.983Z,4.20
2023-02-06T21:02:38.210Z,4.20
2023-02-06T21:05:06.426Z,6.20
2023-02-06T21:07:34.650Z,4.77
2023-02-06T21:10:03.495Z,4.03
2023-02-06T21:12:31.523Z,4.27
2023-02-06T21:15:00.001Z,4.50
2023-02-06T21:17:30.056Z,5.20
2023-02-06T21:19:59.314Z,4.27
2023-02-06T21:22:32.053Z,4.40
2023-02-06T21:25:05.284Z,5.30
2023-02-06T21:27:33.955Z,4.80
2023-02-06T21:30:02.556Z,5.13
2023-02-06T21:32:33.259Z,5.70
2023-02-06T21:35:02.520Z,4.90
2023-02-06T21:37:33.488Z,4.73
2023-02-06T21:40:05.016Z,4.77
2023-02-06T21:42:33.047Z,4.30
2023-02-06T21:45:01.216Z,6.13
2023-02-06T21:47:29.080Z,4.80
2023-02-06T21:49:59.943Z,5.77
2023-02-06T21:52:29.185Z,4.63
2023-02-06T21:55:01.938Z,5.47
2023-02-06T21:57:29.865Z,4.80
2023-02-06T22:00:00.355Z,4.10
2023-02-06T22:02:34.014Z,5.33
2023-02-06T22:05:05.228Z,5.57
2023-02-06T22:07:42.126Z,5.37
2023-02-06T22:10:10.951Z,5.33
2023-02-06T22:12:41.360Z,4.77
2023-02-06T22:15:10.363Z,5.47
2023-02-06T22:17:43.566Z,4.70
2023-02-06T22:20:16.288Z,4.40
2023-02-06T22:22:46.936Z,4.90
2023-02-06T22:25:14.844Z,5.53
2023-02-06T22:27:43.506Z,7.93
2023-02-06T22:30:16.614Z,4.70
2023-02-06T22:32:46.739Z,4.80
2023-02-06T22:35:17.200Z,4.80
2023-02-06T22:37:55.368Z,5.10
2023-02-06T22:40:23.193Z,5.10
2023-02-06T22:42:58.284Z,5.33
2023-02-06T22:45:32.159Z,5.10
2023-02-06T22:48:09.231Z,4.50
2023-02-06T22:50:37.221Z,5.73
2023-02-06T22:53:25.360Z,5.00
2023-02-06T22:56:10.502Z,5.23
2023-02-06T22:58:41.018Z,5.43
2023-02-06T23:01:09.187Z,5.63
2023-02-06T23:03:38.316Z,4.37
2023-02-06T23:06:10.307Z,3.90
2023-02-06T23:08:41.415Z,5.60
2023-02-06T23:11:10.710Z,5.50
2023-02-06T23:13:41.087Z,6.40
2023-02-06T23:16:15.918Z,5.70
2023-02-06T23:18:48.248Z,4.17
2023-02-06T23:21:17.045Z,5.73
2023-02-06T23:23:46.346Z,7.00
2023-02-06T23:26:19.468Z,4.40
2023-02-06T23:28:48.350Z,4.10
2023-02-06T23:31:22.466Z,5.03
2023-02-06T23:33:56.127Z,5.60
2023-02-06T23:36:26.196Z,5.30
2023-02-06T23:38:58.712Z,5.30
2023-02-06T23:41:29.174Z,4.00
2023-02-06T23:43:58.564Z,5.83
2023-02-06T23:46:30.810Z,4.67
2023-02-06T23:49:03.546Z,6.20
2023-02-06T23:51:32.613Z,6.20
2023-02-06T23:54:08.479Z,6.80
2023-02-06T23:56:37.057Z,6.17
